LEGE/GRO METAR and TAF weather

Enter ICAO airport designator
Station Type Date Time Source
LEGE METAR 2020/09/21 05:30 UTC NOAA

LEGE 210530Z 35005KT CAVOK 16/16 Q1015


Station Type Date Time Source
LEGE Decoded METAR 2020/09/21 05:30 UTC NOAA

Gerona / Costa Brava, Spain (LEGE) 41-54N 002-46E 129M
Sep 21, 2020 - 01:30 AM EDT / 2020.09.21 0530 UTC
Wind: from the N (350 degrees) at 6 MPH (5 KT):0
Visibility: greater than 7 mile(s):0
Temperature: 60 F (16 C)
Dew Point: 60 F (16 C)
Relative Humidity: 100%
Pressure (altimeter): 29.97 in. Hg (1015 hPa)
ob: LEGE 210530Z 35005KT CAVOK 16/16 Q1015
cycle: 5

Station Type Date Time Source
LEGE TAF 2020/09/21 06:27 UTC NOAA

TAF LEGE 210500Z 2106/2206 VRB03KT 9999 SCT040 TX26/2113Z TN16/2106Z
TEMPO 2109/2116 15010KT 3000 TSRA BKN010 SCT025CB BKN030
BECMG 2115/2117 VRB03KT
TEMPO 2118/2124 36010KT TSRA SCT040CB
TEMPO 2200/2206 2000 BR BKN010

Example: see airport list